Chantal — A8WQ3 — position and weather

sailwx.info

Track history (hours):
 
Tides and Currents Weather Stations Pressure Air Temp Water Temp Dewpoint Dewpoint Depression Visibility Wind Speed Wind Dir Waves Ship Positions

Chantal

Last reported at 2018-Jan-18 19:23 UTC. Time now 2018-Jan-18 21:46 UTC.
Position N 01°15' E 103°55'.

Length 228 m; draft 8.3 m.

Type: Tanker. MMSI: 636014805.

Date/timePositionNaut miles runAvg speedWind from/ knotsBaromVisibWave heightAir tempDewpointWater temp
2018-Jan-18 19:23N 01°15' E 103°55'0 0.0
2018-Jan-18 18:53N 01°15' E 103°55'0 0.0
2018-Jan-18 16:59N 01°15' E 103°55'0 0.0
2018-Jan-18 16:23N 01°15' E 103°55'0 0.0
2018-Jan-18 15:05N 01°15' E 103°55'0 0.0
2018-Jan-18 14:41N 01°15' E 103°55'0 0.1
2018-Jan-18 13:23N 01°15' E 103°55'0 0.3
2018-Jan-18 12:53N 01°15' E 103°55'0 0.1
2018-Jan-18 12:26N 01°15' E 103°55'0 0.0
2018-Jan-18 11:08N 01°15' E 103°55'0 0.0
2018-Jan-18 10:56N 01°15' E 103°55'0 0.0
2018-Jan-18 10:26N 01°15' E 103°55'0 0.0
2018-Jan-18 08:11N 01°15' E 103°55'0 0.0
2018-Jan-18 07:41N 01°15' E 103°55'0 0.0
2018-Jan-18 07:23N 01°15' E 103°55'0 0.1
2018-Jan-18 06:44N 01°15' E 103°55'0 0.2
2018-Jan-18 06:29N 01°15' E 103°55'0 0.2
2018-Jan-18 05:59N 01°15' E 103°55'0 0.0
2018-Jan-17 23:59N 01°15' E 103°55'  
2018-Jan-12 14:59N 01°18' E 103°44'0 0.0
2018-Jan-12 14:29N 01°18' E 103°44'0 0.0
2018-Jan-12 13:59N 01°18' E 103°44'0 0.0
2018-Jan-12 13:29N 01°18' E 103°44'0 0.0
2018-Jan-12 12:59N 01°18' E 103°44'0 0.0
2018-Jan-12 12:26N 01°18' E 103°44'0 0.0
2018-Jan-12 11:56N 01°18' E 103°44'0 0.0
2018-Jan-12 11:29N 01°18' E 103°44'0 0.0
2018-Jan-12 10:59N 01°18' E 103°44'0 0.0
2018-Jan-12 10:26N 01°18' E 103°44'0 0.0
2018-Jan-12 09:53N 01°18' E 103°44'0 0.0
2018-Jan-12 09:29N 01°18' E 103°44'0 0.0
2018-Jan-12 08:59N 01°18' E 103°44'0 0.5
2018-Jan-12 08:30N 01°17' E 103°44'2 3.3
2018-Jan-12 08:00N 01°16' E 103°45'3 6.8
2018-Jan-12 07:30N 01°13' E 103°48'4 8.3
2018-Jan-12 06:58N 01°13' E 103°52'5 9.9
2018-Jan-12 06:30N 01°15' E 103°56'1 1.8
2018-Jan-12 05:59N 01°15' E 103°56'0 0.0
2018-Jan-12 05:26N 01°15' E 103°56'0 0.0
2018-Jan-12 04:59N 01°15' E 103°56'0 0.0
2018-Jan-12 03:47N 01°15' E 103°56'0 0.1
2018-Jan-12 03:20N 01°15' E 103°56'0 0.0
2018-Jan-12 02:56N 01°15' E 103°56'0 0.0
2018-Jan-12 02:11N 01°15' E 103°56'0 0.0
2018-Jan-12 00:47N 01°15' E 103°56'0 0.1
2018-Jan-11 23:35N 01°15' E 103°55'0 0.0
2018-Jan-11 21:29N 01°15' E 103°55'0 0.0
2018-Jan-11 20:41N 01°15' E 103°55'0 0.0
2018-Jan-11 20:23N 01°15' E 103°55'0 0.0
2018-Jan-11 19:53N 01°15' E 103°55'0 0.0
2018-Jan-11 19:14N 01°15' E 103°55'0 0.0
2018-Jan-11 18:47N 01°15' E 103°55'0 0.0
2018-Jan-11 18:23N 01°15' E 103°55'0 0.0
2018-Jan-11 17:53N 01°15' E 103°55'0 0.0
2018-Jan-11 16:41N 01°15' E 103°55'0 0.0
2018-Jan-11 16:17N 01°15' E 103°55'0 0.1
2018-Jan-11 15:23N 01°15' E 103°55'0 0.0
2018-Jan-11 13:35N 01°15' E 103°55'0 0.0
2018-Jan-11 13:17N 01°15' E 103°55'0 0.0
2018-Jan-11 12:59N 01°15' E 103°55'0 0.0
2018-Jan-11 08:35N 01°15' E 103°56'0 1.4
2018-Jan-11 08:30N 01°15' E 103°56'2 3.3
2018-Jan-11 08:01N 01°15' E 103°57'3 4.8
2018-Jan-11 07:25N 01°16' E 104°00'  
Track history (hours):
 
Tides and Currents Weather Stations Pressure Air Temp Water Temp Dewpoint Dewpoint Depression Visibility Wind Speed Wind Dir Waves Ship Positions

Chantal

Last reported at 2018-Jan-18 19:23 UTC. Time now 2018-Jan-18 21:46 UTC.
Position N 01°15' E 103°55'.

Length 228 m; draft 8.3 m.

Type: Tanker. MMSI: 636014805.

Date/timePositionNaut miles runAvg speedWind from/ knotsBaromVisibWave heightAir tempDewpointWater temp
2018-Jan-18 19:23N 01°15' E 103°55'0 0.0
2018-Jan-18 18:53N 01°15' E 103°55'0 0.0
2018-Jan-18 16:59N 01°15' E 103°55'0 0.0
2018-Jan-18 16:23N 01°15' E 103°55'0 0.0
2018-Jan-18 15:05N 01°15' E 103°55'0 0.0
2018-Jan-18 14:41N 01°15' E 103°55'0 0.1
2018-Jan-18 13:23N 01°15' E 103°55'0 0.3
2018-Jan-18 12:53N 01°15' E 103°55'0 0.1
2018-Jan-18 12:26N 01°15' E 103°55'0 0.0
2018-Jan-18 11:08N 01°15' E 103°55'0 0.0
2018-Jan-18 10:56N 01°15' E 103°55'0 0.0
2018-Jan-18 10:26N 01°15' E 103°55'0 0.0
2018-Jan-18 08:11N 01°15' E 103°55'0 0.0
2018-Jan-18 07:41N 01°15' E 103°55'0 0.0
2018-Jan-18 07:23N 01°15' E 103°55'0 0.1
2018-Jan-18 06:44N 01°15' E 103°55'0 0.2
2018-Jan-18 06:29N 01°15' E 103°55'0 0.2
2018-Jan-18 05:59N 01°15' E 103°55'0 0.0
2018-Jan-17 23:59N 01°15' E 103°55'  
2018-Jan-12 14:59N 01°18' E 103°44'0 0.0
2018-Jan-12 14:29N 01°18' E 103°44'0 0.0
2018-Jan-12 13:59N 01°18' E 103°44'0 0.0
2018-Jan-12 13:29N 01°18' E 103°44'0 0.0
2018-Jan-12 12:59N 01°18' E 103°44'0 0.0
2018-Jan-12 12:26N 01°18' E 103°44'0 0.0
2018-Jan-12 11:56N 01°18' E 103°44'0 0.0
2018-Jan-12 11:29N 01°18' E 103°44'0 0.0
2018-Jan-12 10:59N 01°18' E 103°44'0 0.0
2018-Jan-12 10:26N 01°18' E 103°44'0 0.0
2018-Jan-12 09:53N 01°18' E 103°44'0 0.0
2018-Jan-12 09:29N 01°18' E 103°44'0 0.0
2018-Jan-12 08:59N 01°18' E 103°44'0 0.5
2018-Jan-12 08:30N 01°17' E 103°44'2 3.3
2018-Jan-12 08:00N 01°16' E 103°45'3 6.8
2018-Jan-12 07:30N 01°13' E 103°48'4 8.3
2018-Jan-12 06:58N 01°13' E 103°52'5 9.9
2018-Jan-12 06:30N 01°15' E 103°56'1 1.8
2018-Jan-12 05:59N 01°15' E 103°56'0 0.0
2018-Jan-12 05:26N 01°15' E 103°56'0 0.0
2018-Jan-12 04:59N 01°15' E 103°56'0 0.0
2018-Jan-12 03:47N 01°15' E 103°56'0 0.1
2018-Jan-12 03:20N 01°15' E 103°56'0 0.0
2018-Jan-12 02:56N 01°15' E 103°56'0 0.0
2018-Jan-12 02:11N 01°15' E 103°56'0 0.0
2018-Jan-12 00:47N 01°15' E 103°56'0 0.1
2018-Jan-11 23:35N 01°15' E 103°55'0 0.0
2018-Jan-11 21:29N 01°15' E 103°55'0 0.0
2018-Jan-11 20:41N 01°15' E 103°55'0 0.0
2018-Jan-11 20:23N 01°15' E 103°55'0 0.0
2018-Jan-11 19:53N 01°15' E 103°55'0 0.0
2018-Jan-11 19:14N 01°15' E 103°55'0 0.0
2018-Jan-11 18:47N 01°15' E 103°55'0 0.0
2018-Jan-11 18:23N 01°15' E 103°55'0 0.0
2018-Jan-11 17:53N 01°15' E 103°55'0 0.0
2018-Jan-11 16:41N 01°15' E 103°55'0 0.0
2018-Jan-11 16:17N 01°15' E 103°55'0 0.1
2018-Jan-11 15:23N 01°15' E 103°55'0 0.0
2018-Jan-11 13:35N 01°15' E 103°55'0 0.0
2018-Jan-11 13:17N 01°15' E 103°55'0 0.0
2018-Jan-11 12:59N 01°15' E 103°55'0 0.0
2018-Jan-11 08:35N 01°15' E 103°56'0 1.4
2018-Jan-11 08:30N 01°15' E 103°56'2 3.3
2018-Jan-11 08:01N 01°15' E 103°57'3 4.8
2018-Jan-11 07:25N 01°16' E 104°00'  

Dump ship's entire track history